Featured Flight

MET2281 - Kansas City to Oklahoma City

Bombardier Dash-8-Q200
835AG
1 hr 20 mins
272 nm
Scheduled - Daily

Bid/PiRep Status

Bid was submitted on Oct 21 2016.

PiRep # 73801: Approved by Dave Nichols on October 26th, 2016 21:43 UTC

Departure

Departing from
Kansas City (MCI)
Departure gate
Scheduled Departure
GMT 1500
Local 0900
METAR KMCI 222353Z 10017G23KT 10SM OVC041 12/M04 A3022 RMK AO2 SLP234 T01171039 10133 20111 56011
TAF KMCI 222322Z 2300/2324 11013KT P6SM BKN040 FM230600 15012G20KT P6SM OVC025 FM231000 17013KT P6SM -DZ VCSH OVC020 FM231600 18015G25KT P6SM BKN025 FM232100 18015G25KT P6SM SCT035

Arrival

Arriving at
Oklahoma City (OKC)
Arrival gate
8
Scheduled Arrival
GMT 1620
Local 1020

Route Map

Planning Resources

WLDCT2 GULLI1
DOSOA J25 TUL GULLI
â– RACER3 DOSOA TUL TRUMP5
KMCI DOSOA TUL DWINE KOKC
DOSOA WP1 TUL KOKC
Route:
OFP Layout:
Units:
Detailed Navlog:
ETOPS Planning:
Plan Stepclimbs:
Runway Analysis:
Include NOTAMS:
FIR NOTAMS:
Flight Maps:

Return Flights

MET2282
Bombardier Dash-8-Q200
1650 GMT
MET2286
Bombardier Dash-8-Q200
2330 GMT
MET3421
Bombardier Dash-8-Q400
1335 GMT
MET3423
Bombardier Dash-8-Q400
2040 GMT

Popularity

Hub Current Bids PiReps this month Total PiReps
KMCI 0 0 1
KLAX 0 0 0
KBOS 0 0 0